Terminal Aerodrome Forecast
Issued by NWS Hastings, NE

Home | Current Version | Previous Version | Text Only | Print | Product List | Glossary On
Versions: 1 2 3 4 5 6 7 8 9 10 11 12
670
FTUS45 KGID 061120
TAFEAR
TAF
KEAR 061120Z 0612/0712 20008KT P6SM SKC WS010/22045KT
     FM061400 20016G24KT P6SM SKC
     FM070000 17010KT P6SM FEW250
     FM070400 17012KT P6SM SCT100 BKN250 WS020/21050KT
      AMD LTD TO CLD VIS AND WIND=

USA.gov is the U.S. government's official web portal to all federal, state and local government web resources and services.